Time;durP1;ratioP1;P1;durP2;ratioP2;P2;SDS_P1;SDS_P2;PMS_P1;PMS_P2;Temp;Humidity;BMP_temperature;BMP_pressure;BME280_temperature;BME280_humidity;BME280_pressure;Samples;Min_cycle;Max_cycle;Signal;HPM_P1;HPM_P2
2022/12/30 00:01:35;;;;;;;11.70;2.07;;;7.20;99.90;;;;;;4939636;28;39011;-77
2022/12/30 00:04:01;;;;;;;17.87;2.47;;;7.20;99.90;;;;;;4940366;28;38542;-78
2022/12/30 00:06:27;;;;;;;17.37;2.80;;;7.20;99.90;;;;;;4927031;28;38792;-77
2022/12/30 00:08:56;;;;;;;20.63;2.93;;;7.20;99.90;;;;;;4943446;28;36739;-77
2022/12/30 00:11:26;;;;;;;15.50;3.03;;;7.10;99.90;;;;;;4940112;28;38932;-78
2022/12/30 00:34:35;;;;;;;21.03;2.53;;;7.10;99.90;;;;;;4932631;28;39414;-78
2022/12/30 00:37:03;;;;;;;21.63;2.80;;;7.00;99.90;;;;;;4922002;28;37913;-78
2022/12/30 00:39:29;;;;;;;18.30;3.03;;;7.00;99.90;;;;;;4939694;28;48382;-77
2022/12/30 00:44:39;;;;;;;19.27;2.83;;;7.10;99.90;;;;;;4946878;28;49029;-78
2022/12/30 00:47:07;;;;;;;17.30;2.50;;;7.10;99.90;;;;;;4927599;28;37505;-77
2022/12/30 00:57:48;;;;;;;17.47;2.73;;;7.10;99.90;;;;;;4935496;28;49047;-78
2022/12/30 01:00:14;;;;;;;24.67;4.77;;;7.10;99.90;;;;;;4938609;28;40157;-78
2022/12/30 01:02:40;;;;;;;11.30;2.33;;;7.10;99.90;;;;;;4938172;28;38115;-77
2022/12/30 01:05:06;;;;;;;16.90;2.80;;;7.00;99.90;;;;;;4920618;28;38643;-77
2022/12/30 01:07:33;;;;;;;15.17;3.13;;;7.10;99.90;;;;;;4922784;28;39156;-77
2022/12/30 01:09:59;;;;;;;15.50;2.23;;;7.10;99.90;;;;;;4941817;28;39478;-78
2022/12/30 01:12:25;;;;;;;14.20;2.67;;;7.10;99.90;;;;;;4921719;28;35983;-77
2022/12/30 01:14:53;;;;;;;16.73;2.60;;;7.10;99.90;;;;;;4924789;28;37686;-78
2022/12/30 01:17:28;;;;;;;19.10;2.63;;;7.00;99.90;;;;;;4923519;28;38318;-78
2022/12/30 01:19:55;;;;;;;17.13;3.30;;;7.00;99.90;;;;;;4936603;28;38464;-78
2022/12/30 01:22:21;;;;;;;16.23;2.70;;;7.00;99.90;;;;;;4916731;28;35983;-77
2022/12/30 01:24:47;;;;;;;19.03;3.00;;;7.00;99.90;;;;;;4940022;28;38743;-78
2022/12/30 01:27:13;;;;;;;17.53;3.73;;;7.00;99.90;;;;;;4920118;28;37911;-78
2022/12/30 01:29:41;;;;;;;13.23;2.43;;;7.00;99.90;;;;;;4934567;28;37712;-78
2022/12/30 01:32:13;;;;;;;18.90;2.90;;;6.90;99.90;;;;;;4932833;28;35935;-78
2022/12/30 01:34:39;;;;;;;21.13;4.07;;;6.80;99.90;;;;;;4935055;28;38711;-77
2022/12/30 01:37:06;;;;;;;17.43;2.83;;;6.90;99.90;;;;;;4921003;28;38300;-78
2022/12/30 01:39:32;;;;;;;20.07;3.50;;;6.80;99.90;;;;;;4939982;28;38920;-78
2022/12/30 01:41:58;;;;;;;19.30;3.33;;;6.80;99.90;;;;;;4928421;28;37348;-78
2022/12/30 01:44:49;;;;;;;16.57;3.47;;;6.80;99.90;;;;;;4927353;28;38011;-78
2022/12/30 01:47:24;;;;;;;18.10;2.80;;;6.80;99.90;;;;;;4928244;28;36150;-77
2022/12/30 01:49:54;;;;;;;24.67;3.93;;;6.80;99.90;;;;;;4927600;28;37283;-78
2022/12/30 01:52:23;;;;;;;20.10;3.13;;;6.80;99.90;;;;;;4945164;28;38867;-78
2022/12/30 01:54:51;;;;;;;16.33;3.50;;;6.80;99.90;;;;;;4920121;28;37490;-78
2022/12/30 01:57:19;;;;;;;24.77;3.40;;;6.80;99.90;;;;;;4918784;28;38335;-79
2022/12/30 01:59:46;;;;;;;20.43;3.77;;;6.80;99.90;;;;;;4921651;28;37387;-78
2022/12/30 02:02:13;;;;;;;15.30;2.90;;;6.80;99.90;;;;;;5342666;23;35975;-77
2022/12/30 02:04:39;;;;;;;17.73;3.47;;;6.80;99.90;;;;;;4934852;28;38128;-79
2022/12/30 02:07:20;;;;;;;18.63;3.27;;;6.80;99.90;;;;;;4926646;28;37631;-80
2022/12/30 02:09:47;;;;;;;25.87;4.07;;;6.80;99.90;;;;;;4942855;28;39245;-81
2022/12/30 02:12:13;;;;;;;25.97;3.87;;;6.80;99.90;;;;;;4933495;28;35916;-79
2022/12/30 02:14:42;;;;;;;25.23;3.80;;;6.80;99.90;;;;;;4949685;28;37566;-80
2022/12/30 02:17:17;;;;;;;21.20;4.07;;;6.90;99.90;;;;;;4927814;28;37540;-80
2022/12/30 02:19:46;;;;;;;20.70;5.30;;;6.90;99.90;;;;;;4943306;28;38391;-80
2022/12/30 02:22:48;;;;;;;21.27;4.03;;;7.00;99.90;;;;;;4944915;28;37345;-80
2022/12/30 02:25:49;;;;;;;16.50;2.93;;;7.00;99.90;;;;;;4928482;28;38925;-80
2022/12/30 02:28:27;;;;;;;22.43;4.33;;;7.10;99.90;;;;;;4918859;28;37610;-81
2022/12/30 02:31:24;;;;;;;30.67;4.87;;;7.10;99.90;;;;;;4930498;28;37306;-80
2022/12/30 02:34:13;;;;;;;17.40;4.13;;;7.10;99.90;;;;;;4948541;28;37230;-80
2022/12/30 02:36:49;;;;;;;19.77;4.17;;;7.10;99.90;;;;;;4951236;28;49330;-79
2022/12/30 02:39:45;;;;;;;25.00;4.60;;;7.10;99.90;;;;;;4953294;28;40575;-80
2022/12/30 02:45:24;;;;;;;18.53;4.47;;;7.10;99.90;;;;;;4949666;28;37570;-80
2022/12/30 02:47:56;;;;;;;21.03;3.97;;;7.00;99.90;;;;;;4948631;28;39100;-80
2022/12/30 02:53:14;;;;;;;17.17;4.20;;;7.00;99.90;;;;;;4945015;28;38621;-80
2022/12/30 02:55:41;;;;;;;28.00;4.57;;;6.90;99.90;;;;;;4931271;28;36873;-80
2022/12/30 02:58:07;;;;;;;23.33;4.50;;;6.90;99.90;;;;;;4926113;28;37194;-79
2022/12/30 03:03:58;;;;;;;19.83;4.18;;;6.80;99.90;;;;;;4943352;28;48868;-80
2022/12/30 03:06:50;;;;;;;19.00;4.10;;;6.80;99.90;;;;;;4944808;28;20120;-80
2022/12/30 03:09:26;;;;;;;20.30;3.20;;;6.80;99.90;;;;;;4945504;28;38824;-79
2022/12/30 03:12:13;;;;;;;23.83;4.23;;;6.80;99.90;;;;;;4943144;28;38741;-80
2022/12/30 03:14:51;;;;;;;23.50;3.43;;;6.80;99.90;;;;;;4925551;28;47102;-80
2022/12/30 03:17:22;;;;;;;20.77;4.03;;;6.70;99.90;;;;;;4925580;28;36491;-79
2022/12/30 03:19:53;;;;;;;23.93;4.67;;;6.70;99.90;;;;;;4924648;28;39320;-80
2022/12/30 03:27:55;;;;;;;18.90;4.37;;;6.60;99.90;;;;;;4942953;28;49772;-79
2022/12/30 03:30:21;;;;;;;18.00;3.80;;;6.60;99.90;;;;;;4944786;28;38338;-81
2022/12/30 03:32:48;;;;;;;21.53;4.27;;;6.60;99.90;;;;;;4944233;28;38786;-80
2022/12/30 03:35:14;;;;;;;27.23;5.30;;;6.60;99.90;;;;;;4928837;28;39332;-80
2022/12/30 03:37:53;;;;;;;25.67;4.10;;;6.50;99.90;;;;;;4926416;28;36608;-79
2022/12/30 03:40:21;;;;;;;21.13;4.47;;;6.50;99.90;;;;;;4926660;28;39059;-80
2022/12/30 03:42:51;;;;;;;26.20;4.33;;;6.50;99.90;;;;;;4945894;28;38792;-80
2022/12/30 03:45:17;;;;;;;23.50;4.73;;;6.50;99.90;;;;;;4931204;28;37212;-80
2022/12/30 03:47:43;;;;;;;16.50;4.10;;;6.50;99.90;;;;;;4948916;28;37100;-80
2022/12/30 03:50:09;;;;;;;23.27;4.03;;;6.50;99.90;;;;;;4930689;28;37909;-80
2022/12/30 03:52:36;;;;;;;21.50;4.17;;;6.60;99.90;;;;;;4948012;28;39226;-79
2022/12/30 03:55:03;;;;;;;17.10;3.40;;;6.50;99.90;;;;;;4925897;28;38365;-79
2022/12/30 03:57:29;;;;;;;19.37;3.47;;;6.60;99.90;;;;;;4943919;28;36535;-80
2022/12/30 03:59:55;;;;;;;15.47;3.60;;;6.60;99.90;;;;;;4925997;28;37931;-80
2022/12/30 04:02:21;;;;;;;16.93;3.83;;;6.60;99.90;;;;;;4926577;28;37654;-80
2022/12/30 04:04:48;;;;;;;22.43;4.53;;;6.60;99.90;;;;;;4929811;28;37965;-80
2022/12/30 04:07:14;;;;;;;20.47;5.00;;;6.60;99.90;;;;;;4944469;28;37154;-80
2022/12/30 04:09:40;;;;;;;20.00;3.10;;;6.60;99.90;;;;;;4934254;28;37603;-80
2022/12/30 04:12:06;;;;;;;17.47;3.73;;;6.60;99.90;;;;;;4931876;28;37802;-80
2022/12/30 04:14:32;;;;;;;21.97;4.47;;;6.60;99.90;;;;;;4951401;28;39603;-80
2022/12/30 04:16:59;;;;;;;20.50;3.73;;;6.60;99.90;;;;;;4930563;28;37543;-79
2022/12/30 04:19:25;;;;;;;22.37;4.13;;;6.60;99.90;;;;;;4944729;28;38679;-80
2022/12/30 04:21:51;;;;;;;18.23;3.50;;;6.60;99.90;;;;;;4942477;28;38577;-80
2022/12/30 04:24:17;;;;;;;21.90;3.50;;;6.60;99.90;;;;;;4944083;28;38234;-80
2022/12/30 04:26:43;;;;;;;20.30;4.47;;;6.60;99.90;;;;;;4944689;28;37206;-79
2022/12/30 04:29:09;;;;;;;22.03;3.80;;;6.50;99.90;;;;;;4924286;28;39109;-79
2022/12/30 04:31:35;;;;;;;17.57;3.80;;;6.50;99.90;;;;;;4946374;28;39663;-79
2022/12/30 04:34:01;;;;;;;22.77;3.67;;;6.50;99.90;;;;;;4947578;28;40129;-80
2022/12/30 04:36:27;;;;;;;23.23;3.33;;;6.50;99.90;;;;;;4932674;28;47394;-79
2022/12/30 04:38:54;;;;;;;24.73;3.47;;;6.50;99.90;;;;;;4933629;28;39320;-80
2022/12/30 04:41:20;;;;;;;22.50;3.73;;;6.40;99.90;;;;;;4956608;28;38422;-80
2022/12/30 04:43:47;;;;;;;20.87;4.00;;;6.50;99.90;;;;;;4933808;28;38374;-81
2022/12/30 04:46:13;;;;;;;20.43;3.57;;;6.50;99.90;;;;;;4952090;28;36969;-80
2022/12/30 04:48:39;;;;;;;16.77;2.77;;;6.60;99.90;;;;;;4935309;28;37209;-81
2022/12/30 04:51:06;;;;;;;21.63;3.60;;;6.50;99.90;;;;;;4932335;28;37907;-79
2022/12/30 04:53:32;;;;;;;23.50;3.70;;;6.50;99.90;;;;;;4950302;28;38262;-80
2022/12/30 04:55:58;;;;;;;26.07;4.83;;;6.50;99.90;;;;;;4953575;28;37023;-80
2022/12/30 04:58:25;;;;;;;21.77;4.27;;;6.50;99.90;;;;;;4936137;28;38087;-81
2022/12/30 05:00:52;;;;;;;15.37;4.23;;;6.50;99.90;;;;;;4951534;28;38776;-80
2022/12/30 05:03:18;;;;;;;12.10;3.10;;;6.40;99.90;;;;;;4938154;28;37527;-80
2022/12/30 05:05:45;;;;;;;15.63;3.67;;;6.50;99.90;;;;;;4947323;28;36097;-80
2022/12/30 05:08:11;;;;;;;23.50;4.27;;;6.50;99.90;;;;;;4947742;28;39035;-80
2022/12/30 05:10:38;;;;;;;31.10;6.47;;;6.50;99.90;;;;;;4925810;28;37740;-80
2022/12/30 05:13:05;;;;;;;21.67;3.47;;;6.50;99.90;;;;;;4949176;28;38493;-79
2022/12/30 05:15:31;;;;;;;28.13;5.20;;;6.50;99.90;;;;;;4949377;28;36708;-80
2022/12/30 05:17:57;;;;;;;19.23;4.43;;;6.50;99.90;;;;;;4947378;28;39900;-80
2022/12/30 05:20:24;;;;;;;27.90;4.80;;;6.40;99.90;;;;;;4932564;28;37976;-80
2022/12/30 05:22:50;;;;;;;20.70;4.33;;;6.50;99.90;;;;;;4949720;28;38444;-80
2022/12/30 05:28:01;;;;;;;23.77;3.90;;;6.40;99.90;;;;;;4952595;28;39998;-79
2022/12/30 05:30:27;;;;;;;27.87;4.77;;;6.40;99.90;;;;;;4954251;28;47548;-80
2022/12/30 05:32:53;;;;;;;17.43;3.77;;;6.30;99.90;;;;;;4951506;28;38350;-80
2022/12/30 05:35:20;;;;;;;17.10;4.27;;;6.40;99.90;;;;;;4928231;28;35898;-80
2022/12/30 05:37:46;;;;;;;22.87;4.20;;;6.30;99.90;;;;;;4934220;28;39081;-79
2022/12/30 05:40:13;;;;;;;20.77;4.00;;;6.30;99.90;;;;;;4951443;28;38765;-79
2022/12/30 05:42:39;;;;;;;17.37;4.50;;;6.30;99.90;;;;;;4936352;28;37344;-79
2022/12/30 05:45:06;;;;;;;25.47;5.83;;;6.30;99.90;;;;;;4953821;28;40083;-80
2022/12/30 05:47:32;;;;;;;19.33;4.07;;;6.30;99.90;;;;;;4939383;28;38987;-79
2022/12/30 05:49:58;;;;;;;27.37;4.27;;;6.20;99.90;;;;;;4963455;28;38607;-80
2022/12/30 05:52:25;;;;;;;25.13;4.80;;;6.20;99.90;;;;;;4955176;28;38106;-81
2022/12/30 05:54:51;;;;;;;18.83;4.03;;;6.30;99.90;;;;;;4964461;28;37597;-80
2022/12/30 05:57:17;;;;;;;20.07;4.90;;;6.30;99.90;;;;;;4938260;28;38700;-80
2022/12/30 05:59:43;;;;;;;23.50;3.87;;;6.30;99.90;;;;;;4956114;28;39002;-80
2022/12/30 06:02:09;;;;;;;30.67;4.50;;;6.30;99.90;;;;;;4956188;28;39471;-80
2022/12/30 06:04:35;;;;;;;20.20;4.50;;;6.30;99.90;;;;;;4960005;28;36658;-80
2022/12/30 06:07:01;;;;;;;21.67;4.67;;;6.30;99.90;;;;;;4937803;28;37327;-80
2022/12/30 06:09:27;;;;;;;19.13;5.27;;;6.30;99.90;;;;;;4943769;28;41949;-80
2022/12/30 06:11:53;;;;;;;17.60;3.90;;;6.40;99.90;;;;;;4938404;28;38853;-80
2022/12/30 06:14:22;;;;;;;27.10;4.47;;;6.40;99.90;;;;;;4938989;28;35979;-81
2022/12/30 06:16:48;;;;;;;17.50;5.13;;;6.50;99.90;;;;;;4954845;28;38793;-80
2022/12/30 06:19:14;;;;;;;21.77;5.27;;;6.30;99.90;;;;;;4956851;28;39480;-80
2022/12/30 06:21:40;;;;;;;21.97;5.07;;;6.20;99.90;;;;;;4926932;28;38679;-80
2022/12/30 06:24:07;;;;;;;25.73;5.60;;;6.10;99.90;;;;;;4949753;28;36755;-80
2022/12/30 06:26:33;;;;;;;24.23;5.33;;;6.10;99.90;;;;;;4956137;28;39938;-80
2022/12/30 06:28:59;;;;;;;25.87;5.37;;;6.00;99.90;;;;;;4954503;28;38729;-80
2022/12/30 06:31:25;;;;;;;29.00;6.03;;;6.00;99.90;;;;;;4954537;28;38418;-80
2022/12/30 06:33:51;;;;;;;27.27;5.90;;;6.00;99.90;;;;;;4932560;28;36270;-80
2022/12/30 06:36:17;;;;;;;25.77;5.27;;;6.00;99.90;;;;;;4950366;28;40024;-79
2022/12/30 06:38:43;;;;;;;32.63;5.03;;;6.00;99.90;;;;;;4950400;28;37279;-80
2022/12/30 06:41:09;;;;;;;29.63;5.83;;;6.00;99.90;;;;;;4947245;28;39630;-80
2022/12/30 06:43:35;;;;;;;25.20;5.07;;;6.00;99.90;;;;;;4950389;28;37128;-79
2022/12/30 06:46:01;;;;;;;28.07;5.03;;;6.00;99.90;;;;;;4939245;28;38707;-80
2022/12/30 06:48:27;;;;;;;27.90;5.17;;;6.00;99.90;;;;;;4956768;28;39103;-81
2022/12/30 06:51:00;;;;;;;26.57;5.27;;;6.00;99.90;;;;;;4941709;28;37634;-80
2022/12/30 06:53:27;;;;;;;19.83;4.23;;;6.00;99.90;;;;;;4958390;28;37302;-80
2022/12/30 06:55:54;;;;;;;19.60;4.73;;;6.10;99.90;;;;;;4932537;28;37838;-80
2022/12/30 06:58:20;;;;;;;24.83;5.87;;;6.00;99.90;;;;;;4947142;28;38790;-80
2022/12/30 07:00:47;;;;;;;24.53;4.97;;;6.10;99.90;;;;;;4928945;28;37225;-80
2022/12/30 07:03:13;;;;;;;27.43;5.70;;;6.10;99.90;;;;;;4948135;28;36917;-79
2022/12/30 07:05:42;;;;;;;28.03;5.20;;;6.10;99.90;;;;;;4928732;28;36073;-81
2022/12/30 07:08:08;;;;;;;23.87;4.83;;;6.10;99.90;;;;;;4928400;28;38045;-80
2022/12/30 07:10:34;;;;;;;23.07;5.57;;;6.20;99.90;;;;;;4945229;28;37744;-81
2022/12/30 07:13:00;;;;;;;18.97;4.80;;;6.20;99.90;;;;;;4932937;28;36050;-80
2022/12/30 07:15:27;;;;;;;33.13;6.13;;;6.20;99.90;;;;;;4951837;28;38823;-80
2022/12/30 07:17:53;;;;;;;28.30;5.70;;;6.20;99.90;;;;;;4935423;28;37696;-80
2022/12/30 07:20:19;;;;;;;34.47;5.80;;;6.20;99.90;;;;;;4951585;28;38496;-81
2022/12/30 07:22:45;;;;;;;19.40;5.00;;;6.20;99.90;;;;;;4938302;28;35990;-81
2022/12/30 07:25:12;;;;;;;25.83;5.87;;;6.20;99.90;;;;;;4940368;28;39448;-81
2022/12/30 07:27:39;;;;;;;18.57;5.13;;;6.20;99.90;;;;;;4960616;28;39081;-80
2022/12/30 07:30:05;;;;;;;22.40;5.80;;;6.10;99.90;;;;;;4941117;28;38513;-80
2022/12/30 07:32:32;;;;;;;24.03;5.07;;;6.10;99.90;;;;;;4958548;28;49079;-80
2022/12/30 07:34:58;;;;;;;20.77;4.67;;;6.10;99.90;;;;;;4939274;28;37736;-80
2022/12/30 07:37:24;;;;;;;32.23;5.13;;;6.10;99.90;;;;;;4957666;28;38809;-80
2022/12/30 07:39:50;;;;;;;24.23;5.10;;;6.10;99.90;;;;;;4949349;28;38769;-81
2022/12/30 07:42:16;;;;;;;19.17;5.83;;;6.10;99.90;;;;;;4931117;28;37445;-80
2022/12/30 07:44:42;;;;;;;18.37;5.77;;;6.10;99.90;;;;;;4931362;28;39230;-80
2022/12/30 07:47:08;;;;;;;26.77;5.67;;;6.10;99.90;;;;;;4948805;28;39701;-80
2022/12/30 07:49:34;;;;;;;19.63;5.60;;;6.10;99.90;;;;;;4950666;28;39226;-80
2022/12/30 07:52:00;;;;;;;22.67;6.47;;;6.10;99.90;;;;;;4950080;28;37336;-81
2022/12/30 07:54:26;;;;;;;20.73;7.33;;;6.10;99.90;;;;;;4928764;28;37839;-80
2022/12/30 07:56:53;;;;;;;21.10;6.87;;;6.20;99.90;;;;;;4964346;28;36499;-80
2022/12/30 07:59:19;;;;;;;17.30;5.77;;;6.20;99.90;;;;;;4947502;28;37835;-80
2022/12/30 08:01:45;;;;;;;16.17;5.97;;;6.30;99.90;;;;;;4935839;28;36744;-79
2022/12/30 08:04:11;;;;;;;22.07;7.40;;;6.30;99.90;;;;;;4940740;28;38263;-80
2022/12/30 08:06:37;;;;;;;20.67;7.03;;;6.40;99.90;;;;;;4940431;28;37677;-79
2022/12/30 08:09:04;;;;;;;23.80;7.80;;;6.40;99.90;;;;;;4944109;28;35742;-79
2022/12/30 08:11:31;;;;;;;25.03;8.27;;;6.40;99.90;;;;;;4953901;28;47399;-80
2022/12/30 08:13:58;;;;;;;26.97;8.37;;;6.40;99.90;;;;;;4941864;28;39000;-79
2022/12/30 08:16:24;;;;;;;29.33;7.80;;;6.50;99.90;;;;;;4955521;28;39152;-80
2022/12/30 08:18:51;;;;;;;23.23;7.50;;;6.50;99.90;;;;;;4958522;28;40248;-80
2022/12/30 08:21:18;;;;;;;22.20;7.73;;;6.50;99.90;;;;;;4953690;28;36371;-80
2022/12/30 08:23:46;;;;;;;20.93;7.80;;;6.50;99.90;;;;;;4935811;28;37425;-81
2022/12/30 08:26:15;;;;;;;16.10;6.90;;;6.60;99.90;;;;;;4944935;28;39993;-80
2022/12/30 08:28:41;;;;;;;21.57;7.37;;;6.60;99.90;;;;;;4931998;28;38295;-82
2022/12/30 08:31:10;;;;;;;17.77;6.07;;;6.70;99.90;;;;;;4951701;28;36960;-79
2022/12/30 08:33:36;;;;;;;17.40;6.67;;;6.70;99.90;;;;;;4945000;28;38172;-80
2022/12/30 08:36:06;;;;;;;16.27;6.10;;;6.70;99.90;;;;;;4930147;28;37614;-79
2022/12/30 08:38:45;;;;;;;22.47;7.57;;;6.80;99.90;;;;;;4926987;28;37648;-80
2022/12/30 08:41:36;;;;;;;21.27;5.97;;;6.80;99.90;;;;;;4927839;28;35994;-79
2022/12/30 08:44:03;;;;;;;21.10;5.83;;;6.80;99.90;;;;;;4946845;28;37571;-81
2022/12/30 08:46:31;;;;;;;24.03;6.63;;;6.80;99.90;;;;;;4950906;28;48209;-81
2022/12/30 08:48:57;;;;;;;17.20;5.70;;;6.80;99.90;;;;;;4950787;28;38766;-80
2022/12/30 08:51:23;;;;;;;13.83;6.23;;;6.90;99.90;;;;;;4931959;28;37783;-80
2022/12/30 08:53:49;;;;;;;18.63;5.87;;;6.90;99.90;;;;;;4950221;28;38883;-81
2022/12/30 08:56:18;;;;;;;20.47;6.53;;;6.90;99.90;;;;;;4949442;28;38604;-80
2022/12/30 08:58:44;;;;;;;17.00;5.40;;;6.90;99.90;;;;;;4951391;28;38853;-80
2022/12/30 09:01:16;;;;;;;16.50;5.00;;;6.90;99.90;;;;;;4952317;28;38660;-81
2022/12/30 09:03:43;;;;;;;16.60;5.17;;;6.90;99.90;;;;;;4933086;28;38411;-81
2022/12/30 09:06:10;;;;;;;16.47;4.77;;;7.00;99.90;;;;;;4945885;28;38865;-82
2022/12/30 09:08:37;;;;;;;14.60;5.23;;;7.00;99.90;;;;;;4949942;28;38294;-80
2022/12/30 09:11:12;;;;;;;12.23;4.73;;;7.00;99.90;;;;;;4950067;28;36820;-80
2022/12/30 09:13:42;;;;;;;17.50;4.43;;;7.00;99.90;;;;;;4931269;28;37306;-81
2022/12/30 09:16:12;;;;;;;15.53;4.87;;;7.10;99.90;;;;;;4922125;28;36100;-80
2022/12/30 09:18:39;;;;;;;17.93;4.50;;;7.10;99.90;;;;;;4930085;28;37721;-81
2022/12/30 09:21:05;;;;;;;13.37;4.23;;;7.10;99.90;;;;;;4927676;28;36806;-79
2022/12/30 09:23:32;;;;;;;16.03;3.87;;;7.10;99.90;;;;;;4923155;28;37768;-81
2022/12/30 09:25:59;;;;;;;10.40;3.70;;;7.20;99.90;;;;;;4925827;28;38720;-79
2022/12/30 09:28:25;;;;;;;9.43;4.37;;;7.20;99.90;;;;;;4921453;28;38593;-79
2022/12/30 09:30:51;;;;;;;18.70;3.97;;;7.20;99.90;;;;;;4946035;28;36125;-81
2022/12/30 09:33:18;;;;;;;14.60;4.10;;;7.20;99.90;;;;;;4929369;28;37747;-80
2022/12/30 09:35:44;;;;;;;15.93;3.47;;;7.20;99.90;;;;;;4911874;28;38459;-80
2022/12/30 09:38:10;;;;;;;12.90;4.73;;;7.20;99.90;;;;;;4951812;28;38838;-80
2022/12/30 09:40:56;;;;;;;18.23;4.30;;;7.30;99.90;;;;;;4947458;28;37930;-79
2022/12/30 09:43:37;;;;;;;14.13;3.47;;;7.30;99.90;;;;;;4943916;28;38727;-81
2022/12/30 09:46:21;;;;;;;14.10;3.57;;;7.40;99.90;;;;;;4947695;28;39711;-79
2022/12/30 09:49:13;;;;;;;12.77;3.17;;;7.40;99.90;;;;;;4941293;28;38510;-80
2022/12/30 09:51:44;;;;;;;6.87;2.93;;;7.50;99.90;;;;;;4920392;28;47306;-81
2022/12/30 09:54:14;;;;;;;14.17;3.17;;;7.50;99.90;;;;;;4931205;28;37460;-81
2022/12/30 09:56:44;;;;;;;12.47;3.43;;;7.50;99.90;;;;;;4932521;28;39060;-81
2022/12/30 09:59:18;;;;;;;8.77;2.70;;;7.50;99.90;;;;;;4946756;28;40497;-80
2022/12/30 10:01:48;;;;;;;8.03;3.00;;;7.60;99.90;;;;;;4929039;28;38579;-82
2022/12/30 10:04:17;;;;;;;10.40;3.17;;;7.60;99.90;;;;;;4941961;28;37909;-80
2022/12/30 10:07:06;;;;;;;8.17;2.93;;;7.70;99.90;;;;;;4924812;28;37589;-82
2022/12/30 10:09:56;;;;;;;10.47;2.50;;;7.70;99.90;;;;;;4951817;28;46977;-82
2022/12/30 10:12:32;;;;;;;13.60;2.73;;;7.70;99.90;;;;;;4923218;28;35996;-81
2022/12/30 10:15:27;;;;;;;10.60;2.40;;;7.70;99.90;;;;;;4918004;28;35438;-82
2022/12/30 10:17:56;;;;;;;6.50;2.50;;;7.80;99.90;;;;;;4903762;28;47399;-80
2022/12/30 10:20:44;;;;;;;8.93;2.10;;;7.80;99.90;;;;;;4942890;28;39895;-81
2022/12/30 10:23:16;;;;;;;6.30;2.40;;;7.90;99.90;;;;;;4948953;28;38083;-82
2022/12/30 10:25:54;;;;;;;8.45;2.53;;;7.90;99.90;;;;;;4922664;28;37568;-80
2022/12/30 10:28:29;;;;;;;15.20;3.17;;;8.00;99.90;;;;;;4949481;28;38008;-80
2022/12/30 10:30:55;;;;;;;7.13;2.30;;;8.00;99.90;;;;;;4924776;28;37365;-80
2022/12/30 10:33:23;;;;;;;4.53;1.90;;;8.10;99.90;;;;;;4931888;28;37385;-81
2022/12/30 10:35:57;;;;;;;6.93;1.80;;;8.10;99.90;;;;;;4929203;28;38012;-81
2022/12/30 10:38:30;;;;;;;7.70;2.73;;;8.10;99.90;;;;;;4929695;28;39379;-81
2022/12/30 10:41:05;;;;;;;8.35;2.17;;;8.10;99.90;;;;;;4943507;28;38010;-80
2022/12/30 10:43:41;;;;;;;6.83;1.90;;;8.20;99.90;;;;;;4939136;28;47212;-81
2022/12/30 10:46:44;;;;;;;9.20;2.10;;;8.20;99.90;;;;;;4948164;28;38652;-82
2022/12/30 10:49:29;;;;;;;8.48;1.88;;;8.20;99.90;;;;;;4933397;28;38911;-81
2022/12/30 10:51:56;;;;;;;7.60;1.80;;;8.30;99.90;;;;;;4940793;28;38098;-81
2022/12/30 10:54:22;;;;;;;5.13;1.80;;;8.30;99.90;;;;;;4952093;28;37991;-83
2022/12/30 10:56:49;;;;;;;9.73;2.30;;;8.30;99.90;;;;;;4946666;28;40015;-80
2022/12/30 10:59:20;;;;;;;4.40;1.50;;;8.30;99.90;;;;;;4929169;28;38624;-81
2022/12/30 11:01:47;;;;;;;9.37;2.03;;;8.40;99.90;;;;;;4926515;28;38952;-81
2022/12/30 11:04:36;;;;;;;11.03;2.23;;;8.40;99.90;;;;;;4923127;28;35923;-80
2022/12/30 11:07:05;;;;;;;7.87;1.83;;;8.40;99.90;;;;;;4940352;28;36552;-79
2022/12/30 11:09:31;;;;;;;6.13;1.70;;;8.40;99.90;;;;;;4940912;28;39630;-83
2022/12/30 11:15:03;;;;;;;10.47;1.67;;;8.50;99.90;;;;;;4945807;28;49862;-82
2022/12/30 11:17:53;;;;;;;9.83;2.07;;;8.50;99.90;;;;;;4926289;28;39245;-81
2022/12/30 11:20:26;;;;;;;10.57;1.97;;;8.60;99.90;;;;;;4934357;28;37900;-81
2022/12/30 11:22:54;;;;;;;8.75;1.70;;;8.60;99.90;;;;;;4925368;28;37601;-78
2022/12/30 11:25:33;;;;;;;11.10;2.03;;;8.60;99.90;;;;;;4939019;28;36781;-80
2022/12/30 11:28:02;;;;;;;14.07;3.63;;;8.70;99.90;;;;;;4931064;28;37757;-80
2022/12/30 11:30:52;;;;;;;8.87;1.80;;;8.70;99.90;;;;;;4922298;28;47239;-82
2022/12/30 11:33:37;;;;;;;12.13;2.43;;;8.60;99.90;;;;;;4947201;28;38428;-81
2022/12/30 11:36:35;;;;;;;12.10;2.27;;;8.60;99.90;;;;;;4928685;28;37276;-81
2022/12/30 11:39:04;;;;;;;9.17;1.90;;;8.60;99.90;;;;;;4934983;28;49043;-81
2022/12/30 11:41:32;;;;;;;9.03;2.10;;;8.60;99.90;;;;;;4942263;28;47456;-79
2022/12/30 11:43:58;;;;;;;11.83;2.63;;;8.60;99.90;;;;;;4924934;28;38322;-81
2022/12/30 11:46:40;;;;;;;10.50;2.20;;;8.60;99.90;;;;;;4922251;28;36182;-81
2022/12/30 11:49:28;;;;;;;11.97;2.30;;;8.60;99.90;;;;;;4927606;28;39384;-81
2022/12/30 11:51:58;;;;;;;12.67;2.30;;;8.70;99.90;;;;;;4938652;28;37606;-80
2022/12/30 11:54:31;;;;;;;13.13;2.40;;;8.70;99.90;;;;;;4943406;28;37034;-80
2022/12/30 11:57:05;;;;;;;10.47;1.90;;;8.70;99.90;;;;;;4943061;28;36476;-81
2022/12/30 11:59:44;;;;;;;12.70;2.73;;;8.70;99.90;;;;;;4951135;28;47860;-82
2022/12/30 12:02:19;;;;;;;16.33;2.83;;;8.70;99.90;;;;;;4930110;28;35906;-82
2022/12/30 12:04:45;;;;;;;11.37;2.57;;;8.70;99.90;;;;;;4942373;28;38323;-82
2022/12/30 12:07:17;;;;;;;9.90;2.67;;;8.70;99.90;;;;;;4926907;28;36017;-82
2022/12/30 12:10:14;;;;;;;11.57;3.67;;;8.80;99.90;;;;;;4946174;28;38937;-81
2022/12/30 12:12:59;;;;;;;8.93;2.17;;;8.80;99.90;;;;;;4928250;28;47041;-82
2022/12/30 12:15:28;;;;;;;13.13;2.57;;;8.80;99.90;;;;;;4945366;28;37806;-81
2022/12/30 12:18:04;;;;;;;7.90;2.00;;;8.80;99.90;;;;;;4929095;28;36148;-80
2022/12/30 12:20:48;;;;;;;11.80;2.70;;;8.90;99.90;;;;;;4930651;28;47284;-81
2022/12/30 12:23:29;;;;;;;9.00;2.57;;;8.90;99.90;;;;;;4929662;28;37559;-80
2022/12/30 12:26:10;;;;;;;9.07;2.23;;;8.90;99.90;;;;;;4922191;28;37329;-80
2022/12/30 12:28:40;;;;;;;9.27;2.13;;;8.90;99.90;;;;;;4946227;28;49150;-80
2022/12/30 12:31:06;;;;;;;9.40;2.70;;;8.90;99.90;;;;;;4929257;28;40806;-81
2022/12/30 12:33:52;;;;;;;11.33;2.27;;;9.00;99.90;;;;;;4934398;28;38911;-80
2022/12/30 12:36:56;;;;;;;12.10;3.20;;;9.00;99.90;;;;;;4932832;28;37699;-80
2022/12/30 12:39:45;;;;;;;14.03;2.53;;;9.00;99.90;;;;;;4948099;28;36311;-80
2022/12/30 12:42:15;;;;;;;7.73;1.90;;;9.10;99.90;;;;;;4952555;28;39655;-81
2022/12/30 12:44:47;;;;;;;13.47;2.73;;;9.00;99.90;;;;;;4946908;28;38441;-81
2022/12/30 12:47:48;;;;;;;10.40;1.98;;;9.00;99.90;;;;;;4944340;28;38269;-81
2022/12/30 12:50:32;;;;;;;10.17;2.30;;;9.10;99.90;;;;;;4917010;28;38164;-82
2022/12/30 12:53:17;;;;;;;8.30;2.23;;;9.10;99.90;;;;;;4944333;28;39684;-82
2022/12/30 12:55:54;;;;;;;10.70;1.97;;;9.10;99.90;;;;;;4944519;28;47063;-82
2022/12/30 12:58:31;;;;;;;13.47;2.63;;;9.20;99.90;;;;;;4947536;28;37659;-81
2022/12/30 13:01:26;;;;;;;7.27;1.80;;;9.20;99.90;;;;;;4921440;28;38736;-81
2022/12/30 13:04:10;;;;;;;10.37;2.20;;;9.20;99.90;;;;;;4911047;28;45409;-81
2022/12/30 13:06:51;;;;;;;5.50;1.63;;;9.30;99.90;;;;;;4925142;28;47168;-81
2022/12/30 13:09:56;;;;;;;11.23;2.33;;;9.30;99.90;;;;;;4941363;28;39456;-81
2022/12/30 13:12:36;;;;;;;9.37;2.03;;;9.40;99.90;;;;;;4945695;28;37427;-81
2022/12/30 13:15:22;;;;;;;8.37;1.83;;;9.30;99.90;;;;;;4948478;28;40219;-82
2022/12/30 13:17:51;;;;;;;11.93;1.70;;;9.30;99.90;;;;;;4930356;28;46627;-82
2022/12/30 13:20:22;;;;;;;5.97;1.63;;;9.30;99.90;;;;;;4931993;28;37634;-82
2022/12/30 13:22:49;;;;;;;7.63;1.57;;;9.30;99.90;;;;;;4932559;28;36685;-82
2022/12/30 13:25:44;;;;;;;4.53;1.50;;;9.30;99.90;;;;;;4945349;28;38911;-81
2022/12/30 13:28:23;;;;;;;7.30;1.77;;;9.20;99.90;;;;;;4931376;28;37959;-81
2022/12/30 13:30:55;;;;;;;7.10;1.67;;;9.20;99.90;;;;;;4948069;28;38252;-81
2022/12/30 13:33:28;;;;;;;7.30;2.03;;;9.20;99.90;;;;;;4939854;28;37212;-81
2022/12/30 13:36:09;;;;;;;7.97;2.33;;;9.30;99.90;;;;;;4944207;28;38923;-80
2022/12/30 13:39:08;;;;;;;6.43;1.70;;;9.30;99.90;;;;;;4947674;28;48452;-81
2022/12/30 13:41:59;;;;;;;6.80;1.80;;;9.30;99.90;;;;;;4927572;28;47235;-81
2022/12/30 13:44:32;;;;;;;4.57;1.80;;;9.30;99.90;;;;;;4946782;28;36187;-80
2022/12/30 13:47:00;;;;;;;4.30;1.50;;;9.30;99.90;;;;;;4931207;28;37964;-80
2022/12/30 13:49:34;;;;;;;8.70;2.50;;;9.30;99.90;;;;;;4933734;28;37863;-80
2022/12/30 13:52:18;;;;;;;5.97;1.60;;;9.30;99.90;;;;;;4947138;28;39165;-81
2022/12/30 13:54:51;;;;;;;5.57;2.13;;;9.30;99.90;;;;;;4948422;28;48796;-80
2022/12/30 13:57:36;;;;;;;4.83;1.53;;;9.40;99.90;;;;;;4932843;28;38338;-81
2022/12/30 14:00:14;;;;;;;5.10;1.60;;;9.40;99.90;;;;;;4942433;28;39503;-82
2022/12/30 14:02:40;;;;;;;4.67;1.43;;;9.50;99.90;;;;;;4944840;28;48762;-81